Lamont, Wyoming
Current Conditions -  °F | °C
As of 11:15 AM on Saturday 22 Nov 2014 (Local Time) from KFWZ Reporting Station
Light Snow Light Snow  
Wind Chill: 14°   Ceiling: 800
Heat Index: 28°   Visibility: 0.5mi
Dew Point: 27°   Wind: 26mph
Humidity: 93%   Direction: 250°WSW
Pressure: 29.64"   Gusts: 33mph
Location:  42.1657°N, 107.989°W
Report Text: KFWZ 221815Z AUTO 25023G29KT 1/2SM -SN OVC008 M02/M03 A2964 RMK AO2
Loading
Personal Weather Stations






























Interactive Weather Map New forecast layout! Learn more

10-Day Weather Forecast

Advertisements
Track Severe Weather on mobile